NCAR-RAP Real-Time Weather Data

Output produced by METARs form (10 April 2021  15:05 UTC)
found at http://weather.rap.ucar.edu/surface/
 
MKJP 101400Z 12006KT 9999 SCT020 BKN034 BKN080 27/22 Q1015
MKJP 101300Z 08005KT 9999 FEW020 SCT036 BKN080 27/22 Q1014
MKJP 101200Z 05006KT 9999 FEW018 SCT036 BKN070 27/22 Q1014
MKJP 101100Z 33005KT 9999 FEW020 SCT036 BKN070 26/22 Q1013
MKJP 101000Z 30004KT 9999 FEW020 BKN070 26/23 Q1013
MKJP 100900Z 31008KT 9999 -RA FEW020 SCT036 BKN070 26/23 Q1012
MKJP 100800Z 11006KT 9999 -RA FEW020 BKN070 26/21 Q1012
MKJP 100700Z 04005KT 9999 -SHRA FEW020 BKN036 27/22 Q1013
MKJP 100600Z 34006KT 9999 FEW022 BKN036 27/22 Q1013
MKJP 100500Z 36005KT 9999 FEW022 BKN036 27/23 Q1014
MKJP 100400Z 03007KT 9999 FEW022 27/23 Q1014